sensor_id;sensor_type;location;lat;lon;timestamp;P1;durP1;ratioP1;P2;durP2;ratioP2
41099;SDS011;26844;53.686;-6.346;2024-03-23T00:56:06;6.18;;;5.97;;
41099;SDS011;26844;53.686;-6.346;2024-03-23T00:58:31;5.45;;;5.25;;
41099;SDS011;26844;53.686;-6.346;2024-03-23T01:00:56;5.43;;;5.22;;
41099;SDS011;26844;53.686;-6.346;2024-03-23T01:03:22;5.50;;;5.30;;
41099;SDS011;26844;53.686;-6.346;2024-03-23T01:05:47;5.47;;;5.28;;
41099;SDS011;26844;53.686;-6.346;2024-03-23T01:08:13;5.00;;;4.80;;
41099;SDS011;26844;53.686;-6.346;2024-03-23T01:10:39;4.90;;;4.70;;
41099;SDS011;26844;53.686;-6.346;2024-03-23T01:13:04;5.03;;;4.82;;
41099;SDS011;26844;53.686;-6.346;2024-03-23T01:15:29;4.28;;;4.18;;
41099;SDS011;26844;53.686;-6.346;2024-03-23T01:17:55;4.00;;;3.90;;
41099;SDS011;26844;53.686;-6.346;2024-03-23T01:20:20;4.07;;;3.97;;
41099;SDS011;26844;53.686;-6.346;2024-03-23T01:22:46;3.85;;;3.75;;
41099;SDS011;26844;53.686;-6.346;2024-03-23T01:25:11;3.90;;;3.80;;
41099;SDS011;26844;53.686;-6.346;2024-03-23T01:27:37;4.15;;;4.05;;
41099;SDS011;26844;53.686;-6.346;2024-03-23T01:30:02;4.13;;;4.03;;
41099;SDS011;26844;53.686;-6.346;2024-03-23T01:32:27;3.88;;;3.78;;
41099;SDS011;26844;53.686;-6.346;2024-03-23T01:34:53;4.50;;;4.40;;
41099;SDS011;26844;53.686;-6.346;2024-03-23T01:37:18;4.85;;;4.65;;
41099;SDS011;26844;53.686;-6.346;2024-03-23T01:39:43;4.40;;;4.30;;
41099;SDS011;26844;53.686;-6.346;2024-03-23T01:42:08;4.53;;;4.43;;
41099;SDS011;26844;53.686;-6.346;2024-03-23T01:44:34;4.72;;;4.60;;
41099;SDS011;26844;53.686;-6.346;2024-03-23T01:46:59;5.15;;;4.95;;
41099;SDS011;26844;53.686;-6.346;2024-03-23T01:49:24;5.50;;;5.30;;
41099;SDS011;26844;53.686;-6.346;2024-03-23T01:51:50;4.93;;;4.72;;
41099;SDS011;26844;53.686;-6.346;2024-03-23T01:54:15;5.43;;;5.22;;
41099;SDS011;26844;53.686;-6.346;2024-03-23T01:56:40;5.65;;;5.45;;
41099;SDS011;26844;53.686;-6.346;2024-03-23T01:59:06;5.80;;;5.60;;
41099;SDS011;26844;53.686;-6.346;2024-03-23T02:01:32;5.38;;;5.18;;
41099;SDS011;26844;53.686;-6.346;2024-03-23T02:03:57;6.10;;;5.90;;
41099;SDS011;26844;53.686;-6.346;2024-03-23T02:06:24;6.25;;;6.05;;
41099;SDS011;26844;53.686;-6.346;2024-03-23T02:08:49;6.00;;;5.80;;
41099;SDS011;26844;53.686;-6.346;2024-03-23T02:11:15;5.40;;;5.20;;
41099;SDS011;26844;53.686;-6.346;2024-03-23T02:13:40;5.97;;;5.78;;
41099;SDS011;26844;53.686;-6.346;2024-03-23T02:16:06;5.75;;;5.55;;
41099;SDS011;26844;53.686;-6.346;2024-03-23T02:18:35;5.85;;;5.65;;
41099;SDS011;26844;53.686;-6.346;2024-03-23T02:21:00;5.75;;;5.55;;
41099;SDS011;26844;53.686;-6.346;2024-03-23T02:23:26;5.40;;;5.20;;
41099;SDS011;26844;53.686;-6.346;2024-03-23T02:25:51;5.10;;;4.90;;
41099;SDS011;26844;53.686;-6.346;2024-03-23T02:28:18;6.28;;;6.07;;
41099;SDS011;26844;53.686;-6.346;2024-03-23T02:30:43;5.85;;;5.65;;
41099;SDS011;26844;53.686;-6.346;2024-03-23T02:33:08;6.63;;;6.43;;
41099;SDS011;26844;53.686;-6.346;2024-03-23T02:35:34;5.63;;;5.43;;
41099;SDS011;26844;53.686;-6.346;2024-03-23T02:37:59;5.70;;;5.50;;
41099;SDS011;26844;53.686;-6.346;2024-03-23T02:40:25;5.07;;;4.88;;
41099;SDS011;26844;53.686;-6.346;2024-03-23T02:42:50;4.90;;;4.70;;
41099;SDS011;26844;53.686;-6.346;2024-03-23T02:45:16;5.40;;;5.20;;
41099;SDS011;26844;53.686;-6.346;2024-03-23T02:47:41;5.43;;;5.22;;
41099;SDS011;26844;53.686;-6.346;2024-03-23T02:50:07;6.50;;;6.30;;
41099;SDS011;26844;53.686;-6.346;2024-03-23T02:52:34;6.78;;;6.57;;
41099;SDS011;26844;53.686;-6.346;2024-03-23T02:54:59;7.07;;;6.88;;
41099;SDS011;26844;53.686;-6.346;2024-03-23T02:57:24;7.60;;;7.30;;
41099;SDS011;26844;53.686;-6.346;2024-03-23T02:59:50;7.22;;;6.95;;
41099;SDS011;26844;53.686;-6.346;2024-03-23T03:02:15;7.78;;;7.47;;
41099;SDS011;26844;53.686;-6.346;2024-03-23T03:04:40;6.70;;;6.50;;
41099;SDS011;26844;53.686;-6.346;2024-03-23T03:07:06;7.40;;;7.10;;
41099;SDS011;26844;53.686;-6.346;2024-03-23T03:09:31;7.95;;;7.65;;
41099;SDS011;26844;53.686;-6.346;2024-03-23T03:11:57;7.85;;;7.55;;
41099;SDS011;26844;53.686;-6.346;2024-03-23T03:14:23;8.20;;;7.90;;
41099;SDS011;26844;53.686;-6.346;2024-03-23T03:16:48;8.38;;;8.07;;
41099;SDS011;26844;53.686;-6.346;2024-03-23T03:19:13;8.35;;;8.05;;
41099;SDS011;26844;53.686;-6.346;2024-03-23T03:21:39;8.10;;;7.80;;
41099;SDS011;26844;53.686;-6.346;2024-03-23T03:24:06;8.18;;;7.88;;
41099;SDS011;26844;53.686;-6.346;2024-03-23T03:26:31;8.50;;;8.20;;
41099;SDS011;26844;53.686;-6.346;2024-03-23T03:28:57;7.95;;;7.65;;
41099;SDS011;26844;53.686;-6.346;2024-03-23T03:31:22;7.90;;;7.60;;
41099;SDS011;26844;53.686;-6.346;2024-03-23T03:33:49;7.70;;;7.40;;
41099;SDS011;26844;53.686;-6.346;2024-03-23T03:36:14;8.00;;;7.70;;
41099;SDS011;26844;53.686;-6.346;2024-03-23T03:38:39;7.80;;;7.50;;
41099;SDS011;26844;53.686;-6.346;2024-03-23T03:41:05;7.90;;;7.60;;
41099;SDS011;26844;53.686;-6.346;2024-03-23T03:43:31;8.00;;;7.70;;
41099;SDS011;26844;53.686;-6.346;2024-03-23T03:45:57;7.93;;;7.63;;
41099;SDS011;26844;53.686;-6.346;2024-03-23T03:48:22;8.18;;;7.88;;
41099;SDS011;26844;53.686;-6.346;2024-03-23T03:50:47;7.30;;;7.00;;
41099;SDS011;26844;53.686;-6.346;2024-03-23T03:53:13;7.30;;;7.00;;
41099;SDS011;26844;53.686;-6.346;2024-03-23T03:55:38;8.13;;;7.82;;
41099;SDS011;26844;53.686;-6.346;2024-03-23T03:58:03;7.72;;;7.43;;
41099;SDS011;26844;53.686;-6.346;2024-03-23T04:00:29;7.78;;;7.47;;
41099;SDS011;26844;53.686;-6.346;2024-03-23T04:02:55;7.65;;;7.35;;
41099;SDS011;26844;53.686;-6.346;2024-03-23T04:05:20;7.68;;;7.38;;
41099;SDS011;26844;53.686;-6.346;2024-03-23T04:07:45;7.50;;;7.20;;
41099;SDS011;26844;53.686;-6.346;2024-03-23T04:10:11;7.35;;;7.05;;
41099;SDS011;26844;53.686;-6.346;2024-03-23T04:12:36;8.07;;;7.78;;
41099;SDS011;26844;53.686;-6.346;2024-03-23T04:15:02;7.15;;;6.93;;
41099;SDS011;26844;53.686;-6.346;2024-03-23T04:17:29;7.95;;;7.65;;
41099;SDS011;26844;53.686;-6.346;2024-03-23T04:19:57;7.10;;;6.90;;
41099;SDS011;26844;53.686;-6.346;2024-03-23T04:22:22;6.80;;;6.60;;
41099;SDS011;26844;53.686;-6.346;2024-03-23T04:24:49;7.03;;;6.82;;
41099;SDS011;26844;53.686;-6.346;2024-03-23T04:27:14;7.03;;;6.82;;
41099;SDS011;26844;53.686;-6.346;2024-03-23T04:29:39;7.40;;;7.10;;
41099;SDS011;26844;53.686;-6.346;2024-03-23T04:32:05;6.80;;;6.60;;
41099;SDS011;26844;53.686;-6.346;2024-03-23T04:34:30;6.80;;;6.60;;
41099;SDS011;26844;53.686;-6.346;2024-03-23T04:36:57;6.63;;;6.43;;
41099;SDS011;26844;53.686;-6.346;2024-03-23T04:39:23;7.10;;;6.90;;
41099;SDS011;26844;53.686;-6.346;2024-03-23T04:41:48;7.95;;;7.65;;
41099;SDS011;26844;53.686;-6.346;2024-03-23T04:44:13;7.40;;;7.10;;
41099;SDS011;26844;53.686;-6.346;2024-03-23T04:46:39;7.50;;;7.20;;
41099;SDS011;26844;53.686;-6.346;2024-03-23T04:49:04;7.50;;;7.20;;
41099;SDS011;26844;53.686;-6.346;2024-03-23T04:51:34;7.50;;;7.20;;
41099;SDS011;26844;53.686;-6.346;2024-03-23T04:54:00;7.45;;;7.15;;
41099;SDS011;26844;53.686;-6.346;2024-03-23T04:56:25;7.47;;;7.18;;
41099;SDS011;26844;53.686;-6.346;2024-03-23T04:58:53;7.72;;;7.43;;
41099;SDS011;26844;53.686;-6.346;2024-03-23T05:01:19;6.68;;;6.47;;
41099;SDS011;26844;53.686;-6.346;2024-03-23T05:03:46;6.45;;;6.25;;
41099;SDS011;26844;53.686;-6.346;2024-03-23T05:06:11;6.35;;;6.15;;
41099;SDS011;26844;53.686;-6.346;2024-03-23T05:08:37;6.20;;;6.00;;
41099;SDS011;26844;53.686;-6.346;2024-03-23T05:11:02;5.40;;;5.20;;
41099;SDS011;26844;53.686;-6.346;2024-03-23T05:13:27;5.10;;;4.90;;
41099;SDS011;26844;53.686;-6.346;2024-03-23T05:15:53;5.20;;;5.00;;
41099;SDS011;26844;53.686;-6.346;2024-03-23T05:18:18;5.70;;;5.50;;
41099;SDS011;26844;53.686;-6.346;2024-03-23T05:20:44;5.30;;;5.10;;
41099;SDS011;26844;53.686;-6.346;2024-03-23T05:23:09;6.28;;;6.07;;
41099;SDS011;26844;53.686;-6.346;2024-03-23T05:25:34;5.90;;;5.70;;
41099;SDS011;26844;53.686;-6.346;2024-03-23T05:28:00;6.20;;;6.00;;
41099;SDS011;26844;53.686;-6.346;2024-03-23T05:30:25;5.60;;;5.40;;
41099;SDS011;26844;53.686;-6.346;2024-03-23T05:32:50;5.65;;;5.45;;
41099;SDS011;26844;53.686;-6.346;2024-03-23T05:35:15;5.80;;;5.60;;
41099;SDS011;26844;53.686;-6.346;2024-03-23T05:37:41;5.70;;;5.50;;
41099;SDS011;26844;53.686;-6.346;2024-03-23T05:40:06;5.82;;;5.63;;
41099;SDS011;26844;53.686;-6.346;2024-03-23T05:42:33;5.70;;;5.50;;
41099;SDS011;26844;53.686;-6.346;2024-03-23T05:44:58;6.00;;;5.80;;
41099;SDS011;26844;53.686;-6.346;2024-03-23T05:47:24;6.13;;;5.93;;
41099;SDS011;26844;53.686;-6.346;2024-03-23T05:49:49;5.75;;;5.55;;
41099;SDS011;26844;53.686;-6.346;2024-03-23T05:52:16;6.07;;;5.88;;
41099;SDS011;26844;53.686;-6.346;2024-03-23T05:54:42;4.90;;;4.70;;
41099;SDS011;26844;53.686;-6.346;2024-03-23T05:57:08;5.00;;;4.80;;
41099;SDS011;26844;53.686;-6.346;2024-03-23T05:59:33;5.10;;;4.90;;
41099;SDS011;26844;53.686;-6.346;2024-03-23T06:01:59;5.85;;;5.65;;
41099;SDS011;26844;53.686;-6.346;2024-03-23T06:04:24;6.13;;;5.93;;
41099;SDS011;26844;53.686;-6.346;2024-03-23T06:06:50;6.30;;;6.10;;
41099;SDS011;26844;53.686;-6.346;2024-03-23T06:09:17;6.72;;;6.53;;
41099;SDS011;26844;53.686;-6.346;2024-03-23T06:11:42;5.95;;;5.75;;
41099;SDS011;26844;53.686;-6.346;2024-03-23T06:14:07;6.60;;;6.40;;
41099;SDS011;26844;53.686;-6.346;2024-03-23T06:16:33;6.40;;;6.20;;
41099;SDS011;26844;53.686;-6.346;2024-03-23T06:18:58;6.70;;;6.50;;
41099;SDS011;26844;53.686;-6.346;2024-03-23T06:21:25;7.03;;;6.82;;
41099;SDS011;26844;53.686;-6.346;2024-03-23T06:23:54;7.60;;;7.30;;
41099;SDS011;26844;53.686;-6.346;2024-03-23T06:26:19;7.85;;;7.55;;
41099;SDS011;26844;53.686;-6.346;2024-03-23T06:28:45;8.63;;;8.32;;
41099;SDS011;26844;53.686;-6.346;2024-03-23T06:31:11;7.72;;;7.43;;
41099;SDS011;26844;53.686;-6.346;2024-03-23T06:33:36;7.60;;;7.30;;
41099;SDS011;26844;53.686;-6.346;2024-03-23T06:36:02;7.90;;;7.60;;
41099;SDS011;26844;53.686;-6.346;2024-03-23T06:38:28;8.80;;;8.50;;
41099;SDS011;26844;53.686;-6.346;2024-03-23T06:40:53;8.75;;;8.45;;
41099;SDS011;26844;53.686;-6.346;2024-03-23T06:43:18;8.88;;;8.57;;
41099;SDS011;26844;53.686;-6.346;2024-03-23T06:45:44;8.70;;;8.40;;
41099;SDS011;26844;53.686;-6.346;2024-03-23T06:48:09;8.98;;;8.68;;
41099;SDS011;26844;53.686;-6.346;2024-03-23T06:50:36;8.43;;;8.13;;
41099;SDS011;26844;53.686;-6.346;2024-03-23T06:53:01;8.25;;;7.95;;
41099;SDS011;26844;53.686;-6.346;2024-03-23T06:55:27;8.48;;;8.18;;
41099;SDS011;26844;53.686;-6.346;2024-03-23T06:57:53;8.68;;;8.38;;
41099;SDS011;26844;53.686;-6.346;2024-03-23T07:00:18;8.60;;;8.30;;
41099;SDS011;26844;53.686;-6.346;2024-03-23T07:02:43;8.90;;;8.60;;
41099;SDS011;26844;53.686;-6.346;2024-03-23T07:05:09;9.60;;;9.20;;
41099;SDS011;26844;53.686;-6.346;2024-03-23T07:07:35;9.20;;;8.90;;
41099;SDS011;26844;53.686;-6.346;2024-03-23T07:10:00;8.65;;;8.35;;
41099;SDS011;26844;53.686;-6.346;2024-03-23T07:12:26;9.32;;;9.02;;
41099;SDS011;26844;53.686;-6.346;2024-03-23T07:14:51;8.80;;;8.50;;
41099;SDS011;26844;53.686;-6.346;2024-03-23T07:17:16;8.75;;;8.45;;
41099;SDS011;26844;53.686;-6.346;2024-03-23T07:19:43;9.40;;;9.10;;
41099;SDS011;26844;53.686;-6.346;2024-03-23T07:22:08;7.65;;;7.35;;
41099;SDS011;26844;53.686;-6.346;2024-03-23T07:24:34;8.07;;;7.78;;
41099;SDS011;26844;53.686;-6.346;2024-03-23T07:26:59;6.55;;;6.35;;
41099;SDS011;26844;53.686;-6.346;2024-03-23T07:29:24;6.20;;;6.00;;
41099;SDS011;26844;53.686;-6.346;2024-03-23T07:31:50;7.25;;;6.97;;
41099;SDS011;26844;53.686;-6.346;2024-03-23T07:34:15;7.00;;;6.80;;
41099;SDS011;26844;53.686;-6.346;2024-03-23T07:36:40;7.88;;;7.57;;
41099;SDS011;26844;53.686;-6.346;2024-03-23T07:39:05;8.48;;;8.18;;
41099;SDS011;26844;53.686;-6.346;2024-03-23T07:41:31;7.68;;;7.38;;
41099;SDS011;26844;53.686;-6.346;2024-03-23T07:43:56;7.40;;;7.10;;
41099;SDS011;26844;53.686;-6.346;2024-03-23T07:46:21;7.70;;;7.40;;
41099;SDS011;26844;53.686;-6.346;2024-03-23T07:48:47;7.57;;;7.28;;
41099;SDS011;26844;53.686;-6.346;2024-03-23T07:53:37;7.88;;;7.57;;
41099;SDS011;26844;53.686;-6.346;2024-03-23T07:58:29;8.38;;;8.07;;
41099;SDS011;26844;53.686;-6.346;2024-03-23T08:00:55;9.40;;;9.10;;
41099;SDS011;26844;53.686;-6.346;2024-03-23T08:03:20;9.65;;;9.25;;
41099;SDS011;26844;53.686;-6.346;2024-03-23T08:05:46;9.18;;;8.88;;
41099;SDS011;26844;53.686;-6.346;2024-03-23T08:08:11;10.00;;;9.60;;
41099;SDS011;26844;53.686;-6.346;2024-03-23T08:10:57;10.90;;;10.50;;
41099;SDS011;26844;53.686;-6.346;2024-03-23T08:13:22;10.55;;;10.15;;
41099;SDS011;26844;53.686;-6.346;2024-03-23T08:15:47;9.20;;;8.90;;
41099;SDS011;26844;53.686;-6.346;2024-03-23T08:18:12;9.63;;;9.23;;
41099;SDS011;26844;53.686;-6.346;2024-03-23T08:20:38;9.70;;;9.30;;
41099;SDS011;26844;53.686;-6.346;2024-03-23T08:23:07;10.20;;;9.80;;
41099;SDS011;26844;53.686;-6.346;2024-03-23T08:25:33;8.50;;;8.20;;
41099;SDS011;26844;53.686;-6.346;2024-03-23T08:27:58;8.40;;;8.10;;
41099;SDS011;26844;53.686;-6.346;2024-03-23T08:30:24;7.80;;;7.50;;
41099;SDS011;26844;53.686;-6.346;2024-03-23T08:32:49;7.43;;;7.13;;
41099;SDS011;26844;53.686;-6.346;2024-03-23T08:35:15;6.50;;;6.30;;
41099;SDS011;26844;53.686;-6.346;2024-03-23T08:37:40;7.13;;;6.90;;
41099;SDS011;26844;53.686;-6.346;2024-03-23T08:40:06;7.00;;;6.80;;
41099;SDS011;26844;53.686;-6.346;2024-03-23T08:42:31;6.40;;;6.20;;
41099;SDS011;26844;53.686;-6.346;2024-03-23T08:44:57;6.20;;;6.00;;
41099;SDS011;26844;53.686;-6.346;2024-03-23T08:47:22;4.90;;;4.70;;
41099;SDS011;26844;53.686;-6.346;2024-03-23T08:49:47;4.95;;;4.75;;
41099;SDS011;26844;53.686;-6.346;2024-03-23T08:52:15;5.30;;;5.10;;
41099;SDS011;26844;53.686;-6.346;2024-03-23T08:54:41;5.80;;;5.60;;
41099;SDS011;26844;53.686;-6.346;2024-03-23T08:57:06;5.10;;;4.90;;
41099;SDS011;26844;53.686;-6.346;2024-03-23T08:59:32;5.50;;;5.30;;
41099;SDS011;26844;53.686;-6.346;2024-03-23T09:01:57;4.45;;;4.35;;
41099;SDS011;26844;53.686;-6.346;2024-03-23T09:04:24;4.80;;;4.60;;
41099;SDS011;26844;53.686;-6.346;2024-03-23T09:06:49;4.72;;;4.60;;
41099;SDS011;26844;53.686;-6.346;2024-03-23T09:09:15;4.72;;;4.60;;
41099;SDS011;26844;53.686;-6.346;2024-03-23T09:11:40;4.60;;;4.50;;
41099;SDS011;26844;53.686;-6.346;2024-03-23T09:14:05;4.93;;;4.72;;
41099;SDS011;26844;53.686;-6.346;2024-03-23T09:16:31;4.32;;;4.22;;
41099;SDS011;26844;53.686;-6.346;2024-03-23T09:18:56;4.40;;;4.30;;
41099;SDS011;26844;53.686;-6.346;2024-03-23T09:21:21;5.00;;;4.80;;
41099;SDS011;26844;53.686;-6.346;2024-03-23T09:23:46;5.25;;;5.05;;
41099;SDS011;26844;53.686;-6.346;2024-03-23T09:26:12;5.60;;;5.40;;
41099;SDS011;26844;53.686;-6.346;2024-03-23T09:28:37;5.60;;;5.40;;
41099;SDS011;26844;53.686;-6.346;2024-03-23T09:31:06;5.22;;;5.03;;
41099;SDS011;26844;53.686;-6.346;2024-03-23T09:33:32;6.72;;;6.53;;
41099;SDS011;26844;53.686;-6.346;2024-03-23T09:35:57;5.70;;;5.50;;
41099;SDS011;26844;53.686;-6.346;2024-03-23T09:38:23;5.40;;;5.20;;
41099;SDS011;26844;53.686;-6.346;2024-03-23T09:40:50;6.00;;;5.80;;
41099;SDS011;26844;53.686;-6.346;2024-03-23T09:43:18;5.65;;;5.45;;
41099;SDS011;26844;53.686;-6.346;2024-03-23T09:45:43;6.43;;;6.22;;
41099;SDS011;26844;53.686;-6.346;2024-03-23T09:48:09;6.63;;;6.43;;
41099;SDS011;26844;53.686;-6.346;2024-03-23T09:50:38;6.90;;;6.70;;
41099;SDS011;26844;53.686;-6.346;2024-03-23T09:53:04;8.00;;;7.70;;
41099;SDS011;26844;53.686;-6.346;2024-03-23T09:55:31;8.02;;;7.72;;
41099;SDS011;26844;53.686;-6.346;2024-03-23T09:57:56;9.95;;;9.55;;
41099;SDS011;26844;53.686;-6.346;2024-03-23T10:00:21;9.40;;;9.07;;
41099;SDS011;26844;53.686;-6.346;2024-03-23T10:02:47;10.00;;;9.60;;
41099;SDS011;26844;53.686;-6.346;2024-03-23T10:05:22;10.20;;;9.80;;
41099;SDS011;26844;53.686;-6.346;2024-03-23T10:10:15;8.37;;;8.07;;
41099;SDS011;26844;53.686;-6.346;2024-03-23T10:12:46;7.65;;;7.35;;
41099;SDS011;26844;53.686;-6.346;2024-03-23T10:15:22;4.47;;;4.38;;
41099;SDS011;26844;53.686;-6.346;2024-03-23T10:17:48;5.22;;;5.03;;
41099;SDS011;26844;53.686;-6.346;2024-03-23T10:20:18;6.88;;;6.68;;
41099;SDS011;26844;53.686;-6.346;2024-03-23T10:22:44;4.72;;;4.60;;
41099;SDS011;26844;53.686;-6.346;2024-03-23T10:25:10;5.05;;;4.85;;
41099;SDS011;26844;53.686;-6.346;2024-03-23T10:27:35;4.30;;;4.20;;
41099;SDS011;26844;53.686;-6.346;2024-03-23T10:30:07;4.55;;;4.45;;
41099;SDS011;26844;53.686;-6.346;2024-03-23T10:32:33;3.90;;;3.80;;
41099;SDS011;26844;53.686;-6.346;2024-03-23T10:35:13;3.90;;;3.80;;
41099;SDS011;26844;53.686;-6.346;2024-03-23T10:37:38;3.42;;;3.33;;
41099;SDS011;26844;53.686;-6.346;2024-03-23T10:40:04;3.20;;;3.10;;
41099;SDS011;26844;53.686;-6.346;2024-03-23T10:42:30;4.10;;;4.00;;
41099;SDS011;26844;53.686;-6.346;2024-03-23T10:44:56;3.70;;;3.60;;
41099;SDS011;26844;53.686;-6.346;2024-03-23T10:47:22;3.35;;;3.25;;
41099;SDS011;26844;53.686;-6.346;2024-03-23T10:49:47;3.40;;;3.30;;
41099;SDS011;26844;53.686;-6.346;2024-03-23T10:52:13;3.40;;;3.30;;
41099;SDS011;26844;53.686;-6.346;2024-03-23T10:54:38;2.60;;;2.50;;
41099;SDS011;26844;53.686;-6.346;2024-03-23T10:59:32;2.80;;;2.70;;
41099;SDS011;26844;53.686;-6.346;2024-03-23T11:01:59;2.53;;;2.42;;
41099;SDS011;26844;53.686;-6.346;2024-03-23T11:04:35;3.20;;;3.10;;
41099;SDS011;26844;53.686;-6.346;2024-03-23T11:07:01;3.50;;;3.40;;
41099;SDS011;26844;53.686;-6.346;2024-03-23T11:09:41;3.30;;;3.20;;
41099;SDS011;26844;53.686;-6.346;2024-03-23T11:14:54;2.90;;;2.80;;
41099;SDS011;26844;53.686;-6.346;2024-03-23T11:17:23;3.38;;;3.28;;
41099;SDS011;26844;53.686;-6.346;2024-03-23T11:25:19;4.22;;;4.13;;
41099;SDS011;26844;53.686;-6.346;2024-03-23T11:27:51;3.90;;;3.80;;
41099;SDS011;26844;53.686;-6.346;2024-03-23T11:30:20;4.10;;;4.00;;
41099;SDS011;26844;53.686;-6.346;2024-03-23T11:32:47;3.33;;;3.22;;
41099;SDS011;26844;53.686;-6.346;2024-03-23T11:38:05;2.90;;;2.80;;
41099;SDS011;26844;53.686;-6.346;2024-03-23T11:40:31;3.00;;;2.90;;
41099;SDS011;26844;53.686;-6.346;2024-03-23T11:43:01;3.60;;;3.50;;
41099;SDS011;26844;53.686;-6.346;2024-03-23T11:45:27;3.70;;;3.60;;
41099;SDS011;26844;53.686;-6.346;2024-03-23T11:50:53;3.10;;;3.00;;
41099;SDS011;26844;53.686;-6.346;2024-03-23T11:53:20;3.25;;;3.15;;
41099;SDS011;26844;53.686;-6.346;2024-03-23T11:55:46;3.50;;;3.40;;
41099;SDS011;26844;53.686;-6.346;2024-03-23T11:58:12;3.40;;;3.30;;
41099;SDS011;26844;53.686;-6.346;2024-03-23T12:00:38;4.28;;;4.18;;
41099;SDS011;26844;53.686;-6.346;2024-03-23T12:03:04;3.03;;;2.92;;
41099;SDS011;26844;53.686;-6.346;2024-03-23T12:05:33;3.47;;;3.38;;
41099;SDS011;26844;53.686;-6.346;2024-03-23T12:10:50;2.65;;;2.55;;
41099;SDS011;26844;53.686;-6.346;2024-03-23T12:13:16;3.53;;;3.42;;
41099;SDS011;26844;53.686;-6.346;2024-03-23T12:15:42;3.90;;;3.80;;
41099;SDS011;26844;53.686;-6.346;2024-03-23T12:18:08;4.00;;;3.90;;
41099;SDS011;26844;53.686;-6.346;2024-03-23T12:20:33;3.80;;;3.70;;
41099;SDS011;26844;53.686;-6.346;2024-03-23T12:23:05;3.85;;;3.75;;
41099;SDS011;26844;53.686;-6.346;2024-03-23T12:25:31;3.10;;;3.00;;
41099;SDS011;26844;53.686;-6.346;2024-03-23T12:27:58;2.80;;;2.70;;
41099;SDS011;26844;53.686;-6.346;2024-03-23T12:30:23;2.60;;;2.50;;
41099;SDS011;26844;53.686;-6.346;2024-03-23T12:32:49;2.80;;;2.70;;
41099;SDS011;26844;53.686;-6.346;2024-03-23T12:35:14;4.40;;;4.30;;
41099;SDS011;26844;53.686;-6.346;2024-03-23T12:37:39;5.65;;;5.45;;
41099;SDS011;26844;53.686;-6.346;2024-03-23T12:40:05;7.30;;;7.00;;
41099;SDS011;26844;53.686;-6.346;2024-03-23T12:42:30;9.15;;;8.85;;
41099;SDS011;26844;53.686;-6.346;2024-03-23T12:44:56;10.55;;;10.15;;
41099;SDS011;26844;53.686;-6.346;2024-03-23T12:47:21;10.30;;;9.90;;
41099;SDS011;26844;53.686;-6.346;2024-03-23T12:49:46;9.85;;;9.45;;
41099;SDS011;26844;53.686;-6.346;2024-03-23T12:52:11;8.15;;;7.85;;
41099;SDS011;26844;53.686;-6.346;2024-03-23T12:54:37;7.32;;;7.03;;
41099;SDS011;26844;53.686;-6.346;2024-03-23T12:57:03;5.40;;;5.20;;
41099;SDS011;26844;53.686;-6.346;2024-03-23T12:59:28;5.80;;;5.60;;
41099;SDS011;26844;53.686;-6.346;2024-03-23T13:01:53;4.70;;;4.60;;
41099;SDS011;26844;53.686;-6.346;2024-03-23T13:04:20;3.95;;;3.85;;
41099;SDS011;26844;53.686;-6.346;2024-03-23T13:06:45;4.40;;;4.30;;
41099;SDS011;26844;53.686;-6.346;2024-03-23T13:09:11;4.00;;;3.90;;
41099;SDS011;26844;53.686;-6.346;2024-03-23T13:11:36;4.13;;;4.03;;
41099;SDS011;26844;53.686;-6.346;2024-03-23T13:14:01;3.90;;;3.80;;
41099;SDS011;26844;53.686;-6.346;2024-03-23T13:16:26;3.70;;;3.60;;
41099;SDS011;26844;53.686;-6.346;2024-03-23T13:18:52;3.67;;;3.58;;
41099;SDS011;26844;53.686;-6.346;2024-03-23T13:21:17;3.10;;;3.00;;
41099;SDS011;26844;53.686;-6.346;2024-03-23T13:23:42;2.70;;;2.60;;
41099;SDS011;26844;53.686;-6.346;2024-03-23T13:26:10;2.90;;;2.80;;
41099;SDS011;26844;53.686;-6.346;2024-03-23T13:28:36;2.90;;;2.80;;
41099;SDS011;26844;53.686;-6.346;2024-03-23T13:31:01;3.20;;;3.10;;
41099;SDS011;26844;53.686;-6.346;2024-03-23T13:33:28;2.70;;;2.60;;
41099;SDS011;26844;53.686;-6.346;2024-03-23T13:35:54;2.55;;;2.45;;
41099;SDS011;26844;53.686;-6.346;2024-03-23T13:38:20;2.60;;;2.50;;
41099;SDS011;26844;53.686;-6.346;2024-03-23T13:40:50;2.47;;;2.38;;
41099;SDS011;26844;53.686;-6.346;2024-03-23T13:43:15;2.30;;;2.30;;
41099;SDS011;26844;53.686;-6.346;2024-03-23T13:45:40;2.20;;;2.20;;
41099;SDS011;26844;53.686;-6.346;2024-03-23T13:48:06;1.90;;;1.90;;
41099;SDS011;26844;53.686;-6.346;2024-03-23T13:50:31;1.75;;;1.75;;
41099;SDS011;26844;53.686;-6.346;2024-03-23T13:52:56;1.55;;;1.55;;
41099;SDS011;26844;53.686;-6.346;2024-03-23T13:55:21;1.50;;;1.50;;
41099;SDS011;26844;53.686;-6.346;2024-03-23T13:57:47;1.25;;;1.25;;
41099;SDS011;26844;53.686;-6.346;2024-03-23T14:00:12;1.23;;;1.23;;
41099;SDS011;26844;53.686;-6.346;2024-03-23T14:02:37;1.00;;;1.00;;
41099;SDS011;26844;53.686;-6.346;2024-03-23T14:05:03;0.80;;;0.80;;
41099;SDS011;26844;53.686;-6.346;2024-03-23T14:07:29;0.60;;;0.60;;
41099;SDS011;26844;53.686;-6.346;2024-03-23T14:09:54;0.63;;;0.63;;
41099;SDS011;26844;53.686;-6.346;2024-03-23T14:12:20;0.50;;;0.50;;
41099;SDS011;26844;53.686;-6.346;2024-03-23T14:14:45;0.60;;;0.60;;
41099;SDS011;26844;53.686;-6.346;2024-03-23T14:17:11;0.50;;;0.50;;
41099;SDS011;26844;53.686;-6.346;2024-03-23T14:19:39;0.47;;;0.47;;
41099;SDS011;26844;53.686;-6.346;2024-03-23T14:22:04;0.40;;;0.40;;
41099;SDS011;26844;53.686;-6.346;2024-03-23T14:24:32;0.65;;;0.65;;
41099;SDS011;26844;53.686;-6.346;2024-03-23T14:29:22;0.47;;;0.47;;
41099;SDS011;26844;53.686;-6.346;2024-03-23T14:31:48;0.50;;;0.50;;
41099;SDS011;26844;53.686;-6.346;2024-03-23T14:34:14;0.40;;;0.40;;
41099;SDS011;26844;53.686;-6.346;2024-03-23T14:36:40;0.60;;;0.60;;
41099;SDS011;26844;53.686;-6.346;2024-03-23T14:39:05;0.40;;;0.40;;
41099;SDS011;26844;53.686;-6.346;2024-03-23T14:41:31;0.60;;;0.60;;
41099;SDS011;26844;53.686;-6.346;2024-03-23T14:43:56;0.50;;;0.50;;
41099;SDS011;26844;53.686;-6.346;2024-03-23T14:46:22;0.50;;;0.50;;
41099;SDS011;26844;53.686;-6.346;2024-03-23T14:48:47;0.40;;;0.40;;
41099;SDS011;26844;53.686;-6.346;2024-03-23T14:51:13;0.43;;;0.43;;
41099;SDS011;26844;53.686;-6.346;2024-03-23T14:53:38;0.50;;;0.50;;
41099;SDS011;26844;53.686;-6.346;2024-03-23T14:56:07;0.68;;;0.68;;
41099;SDS011;26844;53.686;-6.346;2024-03-23T14:58:33;0.60;;;0.60;;
41099;SDS011;26844;53.686;-6.346;2024-03-23T15:01:00;0.80;;;0.80;;
41099;SDS011;26844;53.686;-6.346;2024-03-23T15:03:27;0.70;;;0.70;;
41099;SDS011;26844;53.686;-6.346;2024-03-23T15:05:55;0.80;;;0.80;;
41099;SDS011;26844;53.686;-6.346;2024-03-23T15:08:21;1.30;;;1.30;;
41099;SDS011;26844;53.686;-6.346;2024-03-23T15:10:46;1.10;;;1.10;;
41099;SDS011;26844;53.686;-6.346;2024-03-23T15:13:12;1.17;;;1.17;;
41099;SDS011;26844;53.686;-6.346;2024-03-23T15:15:38;1.20;;;1.20;;
41099;SDS011;26844;53.686;-6.346;2024-03-23T15:18:05;1.20;;;1.20;;
41099;SDS011;26844;53.686;-6.346;2024-03-23T15:20:30;1.60;;;1.60;;
41099;SDS011;26844;53.686;-6.346;2024-03-23T15:22:56;1.27;;;1.27;;
41099;SDS011;26844;53.686;-6.346;2024-03-23T15:25:21;1.38;;;1.38;;
41099;SDS011;26844;53.686;-6.346;2024-03-23T15:27:48;1.30;;;1.30;;
41099;SDS011;26844;53.686;-6.346;2024-03-23T15:30:14;1.40;;;1.40;;
41099;SDS011;26844;53.686;-6.346;2024-03-23T15:32:39;1.10;;;1.10;;
41099;SDS011;26844;53.686;-6.346;2024-03-23T15:35:04;1.20;;;1.20;;
41099;SDS011;26844;53.686;-6.346;2024-03-23T15:37:32;1.30;;;1.30;;
41099;SDS011;26844;53.686;-6.346;2024-03-23T15:39:59;1.30;;;1.30;;
41099;SDS011;26844;53.686;-6.346;2024-03-23T15:42:24;1.40;;;1.40;;
41099;SDS011;26844;53.686;-6.346;2024-03-23T15:44:50;1.40;;;1.40;;
41099;SDS011;26844;53.686;-6.346;2024-03-23T15:47:15;1.20;;;1.20;;
41099;SDS011;26844;53.686;-6.346;2024-03-23T15:49:43;1.10;;;1.10;;